»·PEaware :: N792VA KBWC-KCRQ

N792VA :: KBWC-KCRQ

FLIGHT INFORMATION

Flight Status: Arrived
Operator: Privately registered:
United States
More flights under this callsign
Pilot: Scott M. (16181)
Aircraft: Unknown
(P28U)
More flights by this aircraft type
Origin: KBWC Brawley Mun
United States
Destination: KCRQ McClellan-Palomar
United States
More flights between these airports :: More routes between these airports
Route:
File this flight plan on PilotEdge
Remarks:
Altitude:
(Current/Filed)
8,500ft
Speed:
(Current/Filed)
160kts
Departed: 19-Jun-18 05:16 PM
Arrived: 19-Jun-18 06:01 PM
Distance/Time
Traveled:
89nm/0:45
Distance/Time
To Go:
Arrived

Flight Plot

Page will automatically refresh every two minutes.

Flight plan parsing failed; only flown route is shown


Map Options




Map Legend


Flown Route
Filed Route
Departure Airport
Arrival Airport
Navaid (VOR, NDB)
Fix

Horizontal Profiles

Position Reports

Time Latitude Longitude Heading Altitude Ground
Speed
19-Jun-18 17:09 32.991303 -115.514152 359 -120ft 0kts
19-Jun-18 17:10 32.991303 -115.514152 359 -120ft 0kts
19-Jun-18 17:11 32.991303 -115.514152 359 -120ft 0kts
19-Jun-18 17:12 32.991303 -115.514152 359 -120ft 0kts
19-Jun-18 17:13 32.991792 -115.513667 3 -121ft 8kts
19-Jun-18 17:14 32.992298 -115.509927 69 -124ft 9kts
19-Jun-18 17:15 32.992576 -115.509759 1 -124ft 4kts
19-Jun-18 17:16 32.992599 -115.525999 266 212ft 93kts
19-Jun-18 17:17 33.013533 -115.548318 320 1333ft 112kts
19-Jun-18 17:18 33.030968 -115.564684 314 2226ft 104kts
19-Jun-18 17:19 33.042443 -115.596030 300 3409ft 106kts
19-Jun-18 17:20 33.058890 -115.624938 305 4498ft 107kts
19-Jun-18 17:21 33.076823 -115.654387 306 5403ft 113kts
19-Jun-18 17:22 33.095736 -115.685234 306 6177ft 117kts
19-Jun-18 17:23 33.114835 -115.716497 307 6887ft 120kts
19-Jun-18 17:24 33.132499 -115.750409 279 7533ft 125kts
19-Jun-18 17:25 33.133745 -115.790533 275 8312ft 124kts
19-Jun-18 17:26 33.134293 -115.834370 274 8523ft 144kts
19-Jun-18 17:27 33.134828 -115.882280 274 8516ft 145kts
19-Jun-18 17:28 33.135326 -115.930331 274 8515ft 144kts
19-Jun-18 17:29 33.135801 -115.978699 275 8516ft 147kts
19-Jun-18 17:30 33.136278 -116.027691 275 8515ft 148kts
19-Jun-18 17:31 33.136667 -116.074594 274 8515ft 148kts
19-Jun-18 17:32 33.136965 -116.123760 275 8515ft 148kts
19-Jun-18 17:33 33.137322 -116.172584 275 8597ft 144kts
19-Jun-18 17:34 33.137723 -116.220734 275 8690ft 148kts
19-Jun-18 17:35 33.138142 -116.269414 273 8688ft 144kts
19-Jun-18 17:36 33.138772 -116.316947 274 8688ft 143kts
19-Jun-18 17:37 33.139194 -116.364364 274 8696ft 143kts
19-Jun-18 17:38 33.140507 -116.411385 272 8698ft 145kts
19-Jun-18 17:39 33.140020 -116.459309 274 8698ft 145kts
19-Jun-18 17:40 33.140155 -116.507658 274 8565ft 153kts
19-Jun-18 17:41 33.140390 -116.557553 274 8496ft 146kts
19-Jun-18 17:42 33.140225 -116.606039 273 8496ft 145kts
19-Jun-18 17:43 33.139512 -116.653480 272 8497ft 145kts
19-Jun-18 17:44 33.138795 -116.700997 272 8031ft 145kts
19-Jun-18 17:45 33.138011 -116.747807 272 7210ft 139kts
19-Jun-18 17:46 33.137273 -116.793033 272 6448ft 134kts
19-Jun-18 17:47 33.136550 -116.837019 272 5662ft 131kts
19-Jun-18 17:48 33.135824 -116.879659 271 4986ft 126kts
19-Jun-18 17:49 33.135105 -116.920538 271 4491ft 117kts
19-Jun-18 17:50 33.134446 -116.956132 271 4508ft 113kts
19-Jun-18 17:51 33.133757 -116.996382 271 4505ft 124kts
19-Jun-18 17:52 33.132965 -117.037710 271 4504ft 125kts
19-Jun-18 17:53 33.132207 -117.079000 271 4494ft 124kts
19-Jun-18 17:54 33.132204 -117.105701 273 4007ft 111kts
19-Jun-18 17:55 33.136882 -117.133241 276 2891ft 99kts
19-Jun-18 17:56 33.142976 -117.158664 297 1635ft 100kts
19-Jun-18 17:57 33.142607 -117.185304 259 1258ft 79kts
19-Jun-18 17:58 33.139553 -117.209022 255 1369ft 75kts
19-Jun-18 17:59 33.135495 -117.234098 259 1156ft 73kts
19-Jun-18 18:00 33.131758 -117.257777 260 639ft 69kts
19-Jun-18 18:01 33.128654 -117.277497 257 308ft 23kts
19-Jun-18 18:02 33.127775 -117.277875 89 308ft 9kts
19-Jun-18 18:03 33.127366 -117.275795 75 307ft 0kts

Navigation Log

Ident Type
Flight plan parsing failed, navigation log unavailable